createdAt,value
2023-04-09T00:01:09.076Z,7.70
2023-04-09T00:03:37.007Z,7.70
2023-04-09T00:06:05.602Z,7.60
2023-04-09T00:08:32.510Z,7.70
2023-04-09T00:11:00.519Z,7.60
2023-04-09T00:13:38.583Z,7.60
2023-04-09T00:16:08.784Z,7.60
2023-04-09T00:18:36.231Z,7.60
2023-04-09T00:21:03.066Z,7.70
2023-04-09T00:23:29.838Z,7.50
2023-04-09T00:25:56.643Z,7.50
2023-04-09T00:28:23.414Z,7.50
2023-04-09T00:30:50.345Z,7.60
2023-04-09T00:33:17.131Z,7.60
2023-04-09T00:35:43.964Z,7.60
2023-04-09T00:38:11.714Z,7.60
2023-04-09T00:40:38.885Z,7.70
2023-04-09T00:43:06.095Z,7.60
2023-04-09T00:45:33.710Z,7.60
2023-04-09T00:48:01.234Z,7.50
2023-04-09T00:50:28.219Z,7.60
2023-04-09T00:52:56.102Z,7.60
2023-04-09T00:55:22.906Z,7.60
2023-04-09T00:57:49.636Z,7.60
2023-04-09T01:00:16.693Z,7.60
2023-04-09T01:02:44.258Z,7.60
2023-04-09T01:05:13.002Z,7.60
2023-04-09T01:08:01.891Z,7.50
2023-04-09T01:10:46.347Z,7.50
2023-04-09T01:13:20.848Z,7.50
2023-04-09T01:15:56.113Z,7.50
2023-04-09T01:18:29.977Z,7.50
2023-04-09T01:21:02.481Z,7.40
2023-04-09T01:23:56.634Z,7.50
2023-04-09T01:26:47.818Z,7.50
2023-04-09T01:29:17.469Z,7.50
2023-04-09T01:31:47.330Z,7.40
2023-04-09T01:34:15.761Z,7.40
2023-04-09T01:36:50.521Z,7.40
2023-04-09T01:39:18.014Z,7.40
2023-04-09T01:41:46.469Z,7.40
2023-04-09T01:44:14.542Z,7.40
2023-04-09T01:46:43.951Z,7.40
2023-04-09T01:49:11.548Z,7.50
2023-04-09T01:51:38.762Z,7.50
2023-04-09T01:54:06.059Z,7.50
2023-04-09T01:56:47.848Z,7.40
2023-04-09T01:59:14.975Z,7.40
2023-04-09T02:01:50.558Z,7.40
2023-04-09T02:04:27.181Z,7.30
2023-04-09T02:06:58.690Z,7.30
2023-04-09T02:09:29.575Z,7.30
2023-04-09T02:12:00.511Z,7.40
2023-04-09T02:14:28.836Z,7.30
2023-04-09T02:16:56.860Z,7.30
2023-04-09T02:19:23.958Z,7.30
2023-04-09T02:21:50.741Z,7.20
2023-04-09T02:24:17.822Z,7.30
2023-04-09T02:26:44.575Z,7.20
2023-04-09T02:29:11.348Z,7.20
2023-04-09T02:31:38.105Z,7.10
2023-04-09T02:34:07.680Z,7.10
2023-04-09T02:36:34.450Z,7.10
2023-04-09T02:39:01.186Z,7.10
2023-04-09T02:41:27.970Z,7.00
2023-04-09T02:43:55.088Z,7.00
2023-04-09T02:46:21.872Z,6.90
2023-04-09T02:48:48.640Z,6.80
2023-04-09T02:51:17.994Z,6.90
2023-04-09T02:53:45.632Z,7.00
2023-04-09T02:56:13.125Z,6.90
2023-04-09T02:58:39.878Z,6.90
2023-04-09T03:01:09.602Z,6.80
2023-04-09T03:03:37.446Z,6.70
2023-04-09T03:06:06.317Z,6.70
2023-04-09T03:08:33.575Z,6.70
2023-04-09T03:11:00.879Z,6.70
2023-04-09T03:13:32.351Z,6.70
2023-04-09T03:15:59.101Z,6.70
2023-04-09T03:18:25.909Z,6.70
2023-04-09T03:20:56.096Z,6.70
2023-04-09T03:23:23.328Z,6.80
2023-04-09T03:26:00.061Z,6.80
2023-04-09T03:28:26.819Z,6.70
2023-04-09T03:30:54.052Z,6.90
2023-04-09T03:33:20.857Z,6.80
2023-04-09T03:35:48.246Z,7.00
2023-04-09T03:38:15.068Z,6.90
2023-04-09T03:40:42.739Z,7.00
2023-04-09T03:43:12.038Z,6.90
2023-04-09T03:45:39.285Z,7.00
2023-04-09T03:48:06.354Z,6.90
2023-04-09T03:50:39.956Z,6.90
2023-04-09T03:53:07.154Z,6.90
2023-04-09T03:55:34.414Z,6.90
2023-04-09T03:58:01.562Z,6.80
2023-04-09T04:00:28.337Z,6.90
2023-04-09T04:02:56.341Z,6.90
2023-04-09T04:05:26.066Z,7.00
2023-04-09T04:07:53.326Z,6.90
2023-04-09T04:10:22.300Z,7.00
2023-04-09T04:12:49.084Z,7.10
2023-04-09T04:15:15.924Z,7.10
2023-04-09T04:17:44.442Z,7.00
2023-04-09T04:20:13.343Z,7.10
2023-04-09T04:22:40.234Z,7.20
2023-04-09T04:25:07.123Z,7.30
2023-04-09T04:27:34.125Z,7.20
2023-04-09T04:30:03.390Z,7.30
2023-04-09T04:32:30.866Z,7.10
2023-04-09T04:34:57.659Z,7.10
2023-04-09T04:37:25.183Z,7.20
2023-04-09T04:39:51.940Z,7.20
2023-04-09T04:42:18.683Z,7.30
2023-04-09T04:44:45.809Z,7.40
2023-04-09T04:47:12.797Z,7.50
2023-04-09T04:49:39.590Z,7.50
2023-04-09T04:52:07.795Z,7.50
2023-04-09T04:54:34.962Z,7.70
2023-04-09T04:57:02.385Z,7.80
2023-04-09T04:59:29.901Z,7.90
2023-04-09T05:01:57.185Z,8.20
2023-04-09T05:04:25.686Z,8.50
2023-04-09T05:06:52.672Z,8.70
2023-04-09T05:09:22.520Z,8.70
2023-04-09T05:11:49.303Z,8.80
2023-04-09T05:14:17.568Z,8.80
2023-04-09T05:16:44.621Z,8.70
2023-04-09T05:19:11.377Z,8.80
2023-04-09T05:21:39.285Z,9.00
2023-04-09T05:24:06.779Z,9.00
2023-04-09T05:26:33.614Z,8.80
2023-04-09T05:29:02.938Z,8.90
2023-04-09T05:31:29.705Z,8.80
2023-04-09T05:33:56.662Z,8.70
2023-04-09T05:36:23.826Z,8.50
2023-04-09T05:38:50.721Z,8.50
2023-04-09T05:41:17.726Z,8.60
2023-04-09T05:43:44.563Z,8.60
2023-04-09T05:46:11.441Z,8.50
2023-04-09T05:48:38.240Z,8.60
2023-04-09T05:51:05.324Z,8.60
2023-04-09T05:53:32.445Z,8.20
2023-04-09T05:55:59.288Z,8.30
2023-04-09T05:58:26.451Z,8.30
2023-04-09T06:00:53.281Z,8.20
2023-04-09T06:03:22.973Z,8.20
2023-04-09T06:05:50.193Z,8.00
2023-04-09T06:08:17.364Z,7.90
2023-04-09T06:10:44.123Z,7.90
2023-04-09T06:13:11.351Z,8.10
2023-04-09T06:15:39.574Z,8.30
2023-04-09T06:18:06.740Z,8.20
2023-04-09T06:20:33.693Z,8.20
2023-04-09T06:23:00.984Z,8.20
2023-04-09T06:25:27.752Z,8.30
2023-04-09T06:27:54.871Z,8.30
2023-04-09T06:30:21.908Z,8.50
2023-04-09T06:32:54.414Z,8.50
2023-04-09T06:35:22.135Z,8.60
2023-04-09T06:37:49.032Z,8.60
2023-04-09T06:40:16.477Z,8.60
2023-04-09T06:42:43.228Z,8.80
2023-04-09T06:45:10.655Z,8.90
2023-04-09T06:47:37.789Z,8.80
2023-04-09T06:50:05.365Z,8.70
2023-04-09T06:52:32.151Z,8.30
2023-04-09T06:54:58.996Z,7.90
2023-04-09T06:57:26.715Z,7.70
2023-04-09T06:59:53.486Z,7.70
2023-04-09T07:02:20.644Z,7.70
2023-04-09T07:04:49.146Z,7.80
2023-04-09T07:07:15.997Z,7.90
2023-04-09T07:09:43.139Z,7.80
2023-04-09T07:12:10.738Z,7.60
2023-04-09T07:14:37.481Z,7.50
2023-04-09T07:17:04.563Z,7.30
2023-04-09T07:19:31.735Z,7.40
2023-04-09T07:21:58.463Z,7.40
2023-04-09T07:24:25.580Z,7.30
2023-04-09T07:26:52.626Z,7.50
2023-04-09T07:29:20.824Z,7.50
2023-04-09T07:31:48.182Z,7.60
2023-04-09T07:34:15.046Z,7.70
2023-04-09T07:36:43.109Z,7.60
2023-04-09T07:39:09.926Z,7.90
2023-04-09T07:41:37.918Z,7.80
2023-04-09T07:44:06.308Z,7.80
2023-04-09T07:46:33.284Z,7.80
2023-04-09T07:49:00.704Z,7.90
2023-04-09T07:51:28.124Z,7.90
2023-04-09T07:53:55.502Z,8.10
2023-04-09T07:56:22.442Z,8.20
2023-04-09T07:58:49.700Z,8.30
2023-04-09T08:01:16.969Z,8.10
2023-04-09T08:03:43.884Z,8.10
2023-04-09T08:06:10.818Z,8.10
2023-04-09T08:08:38.089Z,8.20
2023-04-09T08:11:06.272Z,8.50
2023-04-09T08:13:33.155Z,8.60
2023-04-09T08:16:03.886Z,8.70
2023-04-09T08:18:31.288Z,8.50
2023-04-09T08:20:59.792Z,8.40
2023-04-09T08:23:26.537Z,8.50
2023-04-09T08:25:53.278Z,8.50
2023-04-09T08:28:22.405Z,8.40
2023-04-09T08:30:49.749Z,8.40
2023-04-09T08:33:19.678Z,8.40
2023-04-09T08:35:47.073Z,8.40
2023-04-09T08:38:17.573Z,8.50
2023-04-09T08:40:45.039Z,8.70
2023-04-09T08:43:16.197Z,8.90
2023-04-09T08:45:43.540Z,8.80
2023-04-09T08:48:13.556Z,8.80
2023-04-09T08:50:41.098Z,8.90
2023-04-09T08:53:09.638Z,8.70
2023-04-09T08:55:37.845Z,8.60
2023-04-09T08:58:07.405Z,8.70
2023-04-09T09:00:34.220Z,8.70
2023-04-09T09:03:11.058Z,9.10
2023-04-09T09:05:44.498Z,9.10
2023-04-09T09:08:26.461Z,9.20
2023-04-09T09:10:53.777Z,9.30
2023-04-09T09:13:23.479Z,9.40
2023-04-09T09:15:55.664Z,9.60
2023-04-09T09:18:42.137Z,9.70
2023-04-09T09:21:19.721Z,9.90
2023-04-09T09:23:48.411Z,9.70
2023-04-09T09:26:19.640Z,9.80
2023-04-09T09:28:48.367Z,10.10
2023-04-09T09:31:16.630Z,10.20
2023-04-09T09:33:44.724Z,10.10
2023-04-09T09:36:11.785Z,9.60
2023-04-09T09:38:58.634Z,9.30
2023-04-09T09:41:26.243Z,9.00
2023-04-09T09:43:53.097Z,8.90
2023-04-09T09:46:22.489Z,8.80
2023-04-09T09:48:49.847Z,8.80
2023-04-09T09:51:17.531Z,8.90
2023-04-09T09:53:47.125Z,8.80
2023-04-09T09:56:19.612Z,8.90
2023-04-09T09:59:09.510Z,9.10
2023-04-09T10:01:37.168Z,9.30
2023-04-09T10:04:06.697Z,9.50
2023-04-09T10:06:38.771Z,9.70
2023-04-09T10:09:06.964Z,9.60
2023-04-09T10:11:36.710Z,9.70
2023-04-09T10:14:05.840Z,9.80
2023-04-09T10:16:33.769Z,9.70
2023-04-09T10:19:01.819Z,9.80
2023-04-09T10:21:47.719Z,9.80
2023-04-09T10:24:16.091Z,9.40
2023-04-09T10:26:47.396Z,9.20
2023-04-09T10:29:17.197Z,9.20
2023-04-09T10:32:10.394Z,9.30
2023-04-09T10:34:41.951Z,9.50
2023-04-09T10:37:23.519Z,9.20
2023-04-09T10:39:52.877Z,9.00
2023-04-09T10:42:41.940Z,8.70
2023-04-09T10:45:14.788Z,8.50
2023-04-09T10:47:43.425Z,8.40
2023-04-09T10:50:19.251Z,8.40
2023-04-09T10:52:47.362Z,8.30
2023-04-09T10:55:36.644Z,8.30
2023-04-09T10:58:06.395Z,8.30
2023-04-09T11:00:38.428Z,8.30
2023-04-09T11:03:20.858Z,8.30
2023-04-09T11:05:59.725Z,8.30
2023-04-09T11:08:30.295Z,8.40
2023-04-09T11:10:58.540Z,8.60
2023-04-09T11:13:25.749Z,8.40
2023-04-09T11:15:55.429Z,8.30
2023-04-09T11:18:27.491Z,8.30
2023-04-09T11:20:56.434Z,8.30
2023-04-09T11:23:24.492Z,8.20
2023-04-09T11:25:52.916Z,8.30
2023-04-09T11:28:20.683Z,8.40
2023-04-09T11:30:47.944Z,8.50
2023-04-09T11:33:16.937Z,8.40
2023-04-09T11:35:45.935Z,8.30
2023-04-09T11:38:12.708Z,8.30
2023-04-09T11:40:50.017Z,8.40
2023-04-09T11:43:17.794Z,8.50
2023-04-09T11:45:45.003Z,8.60
2023-04-09T11:48:13.661Z,8.60
2023-04-09T11:50:41.713Z,8.90
2023-04-09T11:53:22.573Z,9.10
2023-04-09T11:55:53.577Z,9.30
2023-04-09T11:58:25.669Z,9.20
2023-04-09T12:00:58.738Z,9.20
2023-04-09T12:03:36.663Z,9.00
2023-04-09T12:06:05.811Z,8.90
2023-04-09T12:08:37.280Z,9.00
2023-04-09T12:11:16.444Z,9.00
2023-04-09T12:13:44.926Z,9.00
2023-04-09T12:16:14.441Z,9.10
2023-04-09T12:18:44.038Z,9.20
2023-04-09T12:21:10.923Z,9.10
2023-04-09T12:23:38.100Z,9.20
2023-04-09T12:26:07.453Z,9.20
2023-04-09T12:28:34.748Z,9.40
2023-04-09T12:31:31.058Z,9.30
2023-04-09T12:33:57.930Z,9.40
2023-04-09T12:36:25.238Z,9.20
2023-04-09T12:38:52.812Z,9.30
2023-04-09T12:41:19.776Z,9.60
2023-04-09T12:43:47.625Z,9.60
2023-04-09T12:46:14.516Z,9.60
2023-04-09T12:48:41.911Z,9.70
2023-04-09T12:51:09.021Z,9.70
2023-04-09T12:53:36.260Z,9.70
2023-04-09T12:56:03.017Z,9.70
2023-04-09T12:58:29.836Z,9.70
2023-04-09T13:00:57.952Z,9.70
2023-04-09T13:03:25.877Z,10.00
2023-04-09T13:05:53.425Z,10.00
2023-04-09T13:08:20.237Z,10.10
2023-04-09T13:10:46.989Z,10.20
2023-04-09T13:13:26.062Z,10.20
2023-04-09T13:15:55.123Z,10.20
2023-04-09T13:18:21.859Z,10.40
2023-04-09T13:20:49.050Z,10.30
2023-04-09T13:23:16.025Z,10.20
2023-04-09T13:25:42.915Z,10.10
2023-04-09T13:28:10.327Z,10.20
2023-04-09T13:30:37.282Z,10.30
2023-04-09T13:33:04.536Z,10.20
2023-04-09T13:35:31.480Z,10.20
2023-04-09T13:37:58.613Z,10.00
2023-04-09T13:40:26.265Z,9.90
2023-04-09T13:42:53.012Z,9.80
2023-04-09T13:45:24.308Z,10.00
2023-04-09T13:47:51.215Z,10.00
2023-04-09T13:50:18.691Z,10.20
2023-04-09T13:52:45.631Z,10.20
2023-04-09T13:55:12.806Z,10.00
2023-04-09T13:57:39.591Z,9.90
2023-04-09T14:00:08.284Z,10.10
2023-04-09T14:02:35.380Z,10.10
2023-04-09T14:05:04.337Z,10.00
2023-04-09T14:07:31.134Z,10.00
2023-04-09T14:09:58.427Z,9.90
2023-04-09T14:12:25.329Z,9.90
2023-04-09T14:14:55.706Z,10.00
2023-04-09T14:17:22.541Z,10.10
2023-04-09T14:19:49.629Z,10.20
2023-04-09T14:22:16.426Z,10.10
2023-04-09T14:24:43.182Z,10.10
2023-04-09T14:27:10.296Z,10.20
2023-04-09T14:29:37.063Z,10.30
2023-04-09T14:32:04.214Z,10.30
2023-04-09T14:34:33.922Z,10.30
2023-04-09T14:37:01.003Z,10.30
2023-04-09T14:39:27.827Z,10.00
2023-04-09T14:41:57.472Z,9.90
2023-04-09T14:44:27.327Z,10.20
2023-04-09T14:46:55.203Z,10.00
2023-04-09T14:49:22.886Z,9.90
2023-04-09T14:51:49.696Z,10.00
2023-04-09T14:54:17.273Z,10.00
2023-04-09T14:56:44.033Z,10.30
2023-04-09T14:59:11.189Z,10.30
2023-04-09T15:01:38.102Z,10.20
2023-04-09T15:04:05.003Z,10.20
2023-04-09T15:06:32.860Z,10.20
2023-04-09T15:08:59.588Z,10.20
2023-04-09T15:11:28.489Z,10.20
2023-04-09T15:13:57.320Z,10.20
2023-04-09T15:16:27.404Z,10.10
2023-04-09T15:18:57.684Z,9.90
2023-04-09T15:21:24.722Z,10.10
2023-04-09T15:23:51.685Z,10.10
2023-04-09T15:26:18.537Z,9.80
2023-04-09T15:28:47.612Z,9.80
2023-04-09T15:31:14.488Z,9.70
2023-04-09T15:33:46.062Z,9.70
2023-04-09T15:36:12.852Z,9.80
2023-04-09T15:38:39.732Z,9.70
2023-04-09T15:41:07.293Z,9.70
2023-04-09T15:43:34.096Z,9.70
2023-04-09T15:46:08.481Z,9.70
2023-04-09T15:48:35.686Z,9.60
2023-04-09T15:51:02.793Z,9.70
2023-04-09T15:53:29.920Z,9.60
2023-04-09T15:55:59.386Z,9.80
2023-04-09T15:58:26.804Z,9.80
2023-04-09T16:00:54.990Z,9.70
2023-04-09T16:03:22.219Z,9.80
2023-04-09T16:05:50.709Z,9.70
2023-04-09T16:08:18.175Z,9.90
2023-04-09T16:10:54.188Z,9.70
2023-04-09T16:13:21.517Z,9.50
2023-04-09T16:15:49.917Z,9.40
2023-04-09T16:18:17.421Z,9.20
2023-04-09T16:20:45.765Z,9.20
2023-04-09T16:23:14.100Z,9.10
2023-04-09T16:25:41.607Z,9.00
2023-04-09T16:28:09.133Z,9.10
2023-04-09T16:30:36.700Z,9.10
2023-04-09T16:33:04.123Z,9.00
2023-04-09T16:35:30.924Z,9.00
2023-04-09T16:37:58.556Z,9.10
2023-04-09T16:40:26.465Z,9.10
2023-04-09T16:42:53.202Z,9.40
2023-04-09T16:45:20.058Z,9.40
2023-04-09T16:47:50.838Z,9.20
2023-04-09T16:50:20.566Z,9.40
2023-04-09T16:52:47.799Z,9.60
2023-04-09T16:55:14.704Z,9.60
2023-04-09T16:57:41.746Z,9.50
2023-04-09T17:00:09.408Z,9.50
2023-04-09T17:02:39.925Z,9.40
2023-04-09T17:05:09.010Z,9.60
2023-04-09T17:07:36.750Z,9.60
2023-04-09T17:10:06.811Z,9.60
2023-04-09T17:12:37.138Z,9.80
2023-04-09T17:15:04.322Z,9.70
2023-04-09T17:17:37.644Z,9.80
2023-04-09T17:20:04.866Z,9.80
2023-04-09T17:22:38.682Z,9.90
2023-04-09T17:25:08.225Z,10.00
2023-04-09T17:27:35.763Z,10.10
2023-04-09T17:30:04.395Z,10.10
2023-04-09T17:32:46.190Z,9.90
2023-04-09T17:35:18.014Z,9.80
2023-04-09T17:37:45.250Z,9.80
2023-04-09T17:40:14.949Z,9.70
2023-04-09T17:42:41.849Z,9.70
2023-04-09T17:45:09.224Z,9.70
2023-04-09T17:47:36.643Z,9.70
2023-04-09T17:50:04.500Z,9.70
2023-04-09T17:52:37.068Z,9.70
2023-04-09T17:55:14.385Z,9.90
2023-04-09T17:57:41.745Z,10.10
2023-04-09T18:00:09.892Z,9.80
2023-04-09T18:02:37.192Z,9.80
2023-04-09T18:05:04.859Z,9.80
2023-04-09T18:07:35.527Z,9.80
2023-04-09T18:10:06.308Z,9.80
2023-04-09T18:12:34.703Z,10.00
2023-04-09T18:15:01.764Z,9.80
2023-04-09T18:17:28.553Z,9.80
2023-04-09T18:19:58.801Z,9.80
2023-04-09T18:22:27.527Z,9.70
2023-04-09T18:24:58.481Z,9.80
2023-04-09T18:27:27.390Z,10.00
2023-04-09T18:29:56.630Z,10.20
2023-04-09T18:32:23.708Z,9.90
2023-04-09T18:34:51.485Z,9.70
2023-04-09T18:37:20.972Z,9.80
2023-04-09T18:39:48.217Z,9.60
2023-04-09T18:42:15.001Z,9.80
2023-04-09T18:44:43.619Z,9.90
2023-04-09T18:47:11.447Z,9.90
2023-04-09T18:49:40.550Z,10.00
2023-04-09T18:52:09.512Z,9.90
2023-04-09T18:54:37.202Z,10.00
2023-04-09T18:57:04.778Z,10.10
2023-04-09T18:59:33.584Z,10.20
2023-04-09T19:02:06.873Z,10.20
2023-04-09T19:04:40.553Z,10.10
2023-04-09T19:07:08.117Z,10.30
2023-04-09T19:09:37.307Z,10.30
2023-04-09T19:12:04.616Z,10.20
2023-04-09T19:14:31.494Z,10.10
2023-04-09T19:17:00.042Z,10.20
2023-04-09T19:19:29.492Z,10.30
2023-04-09T19:21:58.218Z,10.20
2023-04-09T19:24:27.107Z,10.20
2023-04-09T19:26:57.299Z,10.20
2023-04-09T19:29:24.143Z,10.20
2023-04-09T19:31:54.533Z,10.20
2023-04-09T19:34:22.072Z,9.90
2023-04-09T19:36:49.258Z,10.10
2023-04-09T19:39:16.401Z,10.10
2023-04-09T19:41:43.500Z,10.20
2023-04-09T19:44:13.296Z,10.10
2023-04-09T19:46:40.136Z,10.10
2023-04-09T19:49:07.352Z,10.10
2023-04-09T19:51:34.375Z,10.20
2023-04-09T19:54:01.537Z,10.10
2023-04-09T19:56:28.333Z,10.10
2023-04-09T19:59:05.301Z,9.90
2023-04-09T20:01:32.935Z,9.90
2023-04-09T20:04:04.497Z,9.90
2023-04-09T20:06:33.951Z,9.70
2023-04-09T20:09:01.820Z,9.60
2023-04-09T20:11:29.073Z,9.60
2023-04-09T20:13:57.271Z,9.50
2023-04-09T20:16:26.767Z,9.50
2023-04-09T20:18:55.417Z,9.50
2023-04-09T20:21:28.927Z,9.40
2023-04-09T20:23:55.939Z,9.40
2023-04-09T20:26:22.762Z,9.30
2023-04-09T20:28:49.861Z,9.30
2023-04-09T20:31:17.586Z,9.70
2023-04-09T20:33:44.378Z,9.70
2023-04-09T20:36:19.288Z,9.80
2023-04-09T20:38:48.170Z,9.70
2023-04-09T20:41:17.276Z,9.90
2023-04-09T20:43:46.862Z,9.90
2023-04-09T20:46:14.432Z,9.90
2023-04-09T20:48:42.169Z,10.00
2023-04-09T20:51:13.268Z,10.00
2023-04-09T20:53:40.477Z,10.10
2023-04-09T20:56:09.077Z,10.10
2023-04-09T20:58:36.190Z,9.90
2023-04-09T21:01:07.953Z,9.90
2023-04-09T21:03:36.045Z,10.00
2023-04-09T21:06:03.606Z,9.90
2023-04-09T21:08:31.428Z,9.90
2023-04-09T21:10:59.005Z,10.00
2023-04-09T21:13:27.354Z,9.70
2023-04-09T21:15:54.711Z,9.80
2023-04-09T21:18:21.648Z,9.90
2023-04-09T21:20:49.807Z,9.90
2023-04-09T21:23:16.772Z,9.60
2023-04-09T21:25:44.373Z,9.90
2023-04-09T21:28:12.502Z,9.80
2023-04-09T21:30:39.826Z,9.90
2023-04-09T21:33:09.047Z,9.90
2023-04-09T21:35:37.244Z,9.90
2023-04-09T21:38:04.282Z,9.80
2023-04-09T21:40:32.403Z,9.80
2023-04-09T21:43:05.188Z,9.60
2023-04-09T21:45:32.664Z,9.70
2023-04-09T21:48:01.207Z,9.70
2023-04-09T21:50:28.388Z,9.60
2023-04-09T21:52:55.556Z,9.60
2023-04-09T21:55:23.215Z,9.80
2023-04-09T21:57:55.295Z,9.80
2023-04-09T22:00:25.195Z,9.80
2023-04-09T22:02:53.861Z,9.90
2023-04-09T22:05:20.678Z,9.80
2023-04-09T22:07:48.160Z,9.70
2023-04-09T22:10:14.955Z,9.60
2023-04-09T22:12:42.340Z,9.80
2023-04-09T22:15:09.521Z,9.80
2023-04-09T22:17:36.688Z,9.90
2023-04-09T22:20:04.858Z,9.80
2023-04-09T22:22:34.122Z,9.80
2023-04-09T22:25:11.384Z,9.70
2023-04-09T22:27:40.513Z,9.80
2023-04-09T22:30:07.947Z,9.80
2023-04-09T22:32:35.155Z,9.80
2023-04-09T22:35:02.793Z,9.80
2023-04-09T22:37:31.160Z,9.80
2023-04-09T22:39:58.340Z,9.90
2023-04-09T22:42:29.202Z,9.90
2023-04-09T22:44:56.041Z,9.90
2023-04-09T22:47:24.837Z,10.00
2023-04-09T22:49:56.744Z,9.80
2023-04-09T22:52:34.743Z,9.70
2023-04-09T22:55:02.714Z,9.50
2023-04-09T22:57:30.729Z,9.30
2023-04-09T22:59:58.899Z,9.10
2023-04-09T23:02:26.516Z,9.10
2023-04-09T23:04:53.511Z,9.10
2023-04-09T23:07:20.342Z,9.10
2023-04-09T23:09:47.483Z,9.00
2023-04-09T23:12:17.393Z,9.00
2023-04-09T23:14:48.201Z,8.80
2023-04-09T23:17:21.387Z,8.80
2023-04-09T23:19:48.539Z,8.80
2023-04-09T23:22:16.132Z,8.80
2023-04-09T23:24:42.910Z,8.80
2023-04-09T23:27:10.739Z,8.80
2023-04-09T23:29:38.723Z,8.70
2023-04-09T23:32:11.106Z,8.70
2023-04-09T23:34:38.082Z,8.70
2023-04-09T23:37:15.204Z,8.70
2023-04-09T23:39:42.040Z,8.70
2023-04-09T23:42:08.974Z,8.70
2023-04-09T23:44:38.986Z,8.60
2023-04-09T23:47:07.180Z,8.60
2023-04-09T23:49:34.216Z,8.60
2023-04-09T23:52:01.351Z,8.70
2023-04-09T23:54:29.629Z,8.50
2023-04-09T23:56:58.582Z,8.60
2023-04-09T23:59:25.987Z,8.70
